Terminal Aerodrome Forecast
Issued by NWS Shreveport, LA

Home | Current Version | Previous Version | Text Only | Print | Product List | Glossary On
Versions: 1 2 3 4 5 6 7 8 9 10 11 12
000
FTUS44 KSHV 282300
TAFGGG
TAF
KGGG 282334Z 2900/2924 18010KT P6SM SCT045
      TEMPO 2904/2908 BKN025
     FM290800 19012KT P6SM OVC015
      TEMPO 2910/2914 5SM BR OVC008
     FM291500 21012G20KT P6SM BKN025
     FM291700 21018G30KT P6SM SCT040=

USA.gov is the U.S. government's official web portal to all federal, state and local government web resources and services.